Time;durP1;ratioP1;P1;durP2;ratioP2;P2;SDS_P1;SDS_P2;PMS_P1;PMS_P2;Temp;Humidity;BMP_temperature;BMP_pressure;BME280_temperature;BME280_humidity;BME280_pressure;Samples;Min_cycle;Max_cycle;Signal;HPM_P1;HPM_P2
2023/11/05 00:02:20;;;;;;;;;;;;;;;20.47;46.40;99530.60;102275;1299;60628;-81
2023/11/05 00:04:45;;;;;;;;;;;;;;;20.47;46.36;99540.78;102356;1299;61803;-82
2023/11/05 00:07:11;;;;;;;;;;;;;;;20.47;46.41;99545.48;102743;1291;72455;-82
2023/11/05 00:09:36;;;;;;;;;;;;;;;20.47;46.27;99550.65;103043;1289;61114;-82
2023/11/05 00:12:02;;;;;;;;;;;;;;;20.47;46.31;99553.86;103070;1291;60580;-83
2023/11/05 00:14:28;;;;;;;;;;;;;;;20.47;46.28;99557.61;102739;1294;60563;-83
2023/11/05 00:16:53;;;;;;;;;;;;;;;20.46;46.21;99565.89;102801;1296;60486;-82
2023/11/05 00:19:19;;;;;;;;;;;;;;;20.47;46.26;99573.36;103101;1294;60595;-82
2023/11/05 00:21:45;;;;;;;;;;;;;;;20.46;46.26;99580.56;103016;1290;74592;-84
2023/11/05 00:24:11;;;;;;;;;;;;;;;20.46;46.25;99585.21;102775;1290;61827;-81
2023/11/05 00:26:36;;;;;;;;;;;;;;;20.46;46.16;99593.43;103060;1289;60598;-83
2023/11/05 00:29:02;;;;;;;;;;;;;;;20.46;46.16;99596.87;103033;1290;60608;-81
2023/11/05 00:31:27;;;;;;;;;;;;;;;20.46;46.24;99604.89;102684;1295;61318;-83
2023/11/05 00:33:53;;;;;;;;;;;;;;;20.46;46.37;99608.50;102919;1290;73580;-83
2023/11/05 00:36:18;;;;;;;;;;;;;;;20.45;46.22;99607.45;103053;1293;60599;-81
2023/11/05 00:38:44;;;;;;;;;;;;;;;20.45;46.22;99604.77;102726;1289;60614;-83
2023/11/05 00:41:09;;;;;;;;;;;;;;;20.45;46.15;99608.86;102722;1293;60595;-82
2023/11/05 00:43:35;;;;;;;;;;;;;;;20.45;46.14;99615.31;103134;1294;60559;-84
2023/11/05 00:46:00;;;;;;;;;;;;;;;20.45;46.09;99620.71;102671;1294;72953;-81
2023/11/05 00:48:27;;;;;;;;;;;;;;;20.45;46.21;99625.34;102736;1291;61004;-83
2023/11/05 00:50:52;;;;;;;;;;;;;;;20.45;46.05;99627.28;103023;1294;60613;-83
2023/11/05 00:53:18;;;;;;;;;;;;;;;20.45;46.09;99630.67;102875;1291;61719;-83
2023/11/05 00:55:43;;;;;;;;;;;;;;;20.44;46.10;99628.95;103054;1294;60594;-83
2023/11/05 00:58:10;;;;;;;;;;;;;;;20.45;46.10;99633.77;102782;1294;60573;-83
2023/11/05 01:00:36;;;;;;;;;;;;;;;20.45;46.10;99635.54;102783;1293;60472;-82
2023/11/05 01:03:01;;;;;;;;;;;;;;;20.44;46.16;99633.96;102975;1294;62219;-82
2023/11/05 01:05:27;;;;;;;;;;;;;;;20.44;46.07;99637.04;103066;1289;60586;-82
2023/11/05 01:07:52;;;;;;;;;;;;;;;20.44;46.05;99640.97;103039;1293;60591;-84
2023/11/05 01:10:18;;;;;;;;;;;;;;;20.44;46.08;99636.30;102787;1293;60510;-84
2023/11/05 01:12:43;;;;;;;;;;;;;;;20.44;45.99;99635.79;103111;1294;60472;-83
2023/11/05 01:15:11;;;;;;;;;;;;;;;20.43;45.94;99633.31;103031;1294;61681;-83
2023/11/05 01:17:37;;;;;;;;;;;;;;;20.43;45.92;99636.03;102741;1293;61226;-83
2023/11/05 01:20:08;;;;;;;;;;;;;;;20.43;45.89;99638.16;102724;1294;61040;-83
2023/11/05 01:22:57;;;;;;;;;;;;;;;20.43;46.08;99643.55;103060;1291;62240;-84
2023/11/05 01:25:23;;;;;;;;;;;;;;;20.43;45.99;99646.55;102503;1299;61737;-83
2023/11/05 01:27:49;;;;;;;;;;;;;;;20.43;45.90;99649.42;102329;1299;60642;-81
2023/11/05 01:30:14;;;;;;;;;;;;;;;20.43;46.03;99648.38;102317;1294;61190;-83
2023/11/05 01:32:40;;;;;;;;;;;;;;;20.43;46.00;99650.53;102457;1299;60577;-82
2023/11/05 01:35:07;;;;;;;;;;;;;;;20.42;45.89;99647.67;102546;1299;60868;-84
2023/11/05 01:37:32;;;;;;;;;;;;;;;20.43;45.94;99648.02;102473;1294;60604;-84
2023/11/05 01:39:58;;;;;;;;;;;;;;;20.42;46.01;99650.72;102331;1294;61716;-84
2023/11/05 01:42:46;;;;;;;;;;;;;;;20.43;45.83;99659.14;102518;1301;61975;-84
2023/11/05 01:45:12;;;;;;;;;;;;;;;20.42;45.87;99663.25;101812;1303;60721;-81
2023/11/05 01:47:37;;;;;;;;;;;;;;;20.42;45.98;99673.80;101787;1303;61855;-82
2023/11/05 01:50:03;;;;;;;;;;;;;;;20.42;46.02;99669.89;101863;1303;60686;-82
2023/11/05 01:52:29;;;;;;;;;;;;;;;20.42;45.87;99673.98;101927;1306;61708;-82
2023/11/05 01:54:56;;;;;;;;;;;;;;;20.42;45.78;99675.05;101948;1305;61154;-82
2023/11/05 01:57:21;;;;;;;;;;;;;;;20.42;45.85;99673.86;101910;1306;60613;-82
2023/11/05 01:59:48;;;;;;;;;;;;;;;20.41;45.79;99672.45;101983;1303;60602;-82
2023/11/05 02:02:14;;;;;;;;;;;;;;;20.42;45.86;99679.39;101916;1307;62248;-82
2023/11/05 02:04:40;;;;;;;;;;;;;;;20.41;45.69;99684.23;102279;1296;61826;-82
2023/11/05 02:07:05;;;;;;;;;;;;;;;20.41;45.92;99683.73;102281;1297;60512;-83
2023/11/05 02:09:31;;;;;;;;;;;;;;;20.41;45.88;99691.05;102308;1297;61778;-81
2023/11/05 02:11:58;;;;;;;;;;;;;;;20.41;45.83;99691.23;102304;1297;60602;-84
2023/11/05 02:14:24;;;;;;;;;;;;;;;20.41;45.77;99696.27;102453;1301;72389;-82
2023/11/05 02:16:50;;;;;;;;;;;;;;;20.41;45.83;99701.64;102225;1302;60599;-82
2023/11/05 02:19:16;;;;;;;;;;;;;;;20.40;45.86;99710.59;102262;1296;61804;-82
2023/11/05 02:21:49;;;;;;;;;;;;;;;20.40;45.83;99719.73;102017;1301;322545;-81
2023/11/05 02:24:15;;;;;;;;;;;;;;;20.40;45.78;99717.25;103017;1292;73358;-84
2023/11/05 02:26:41;;;;;;;;;;;;;;;20.40;45.65;99714.88;102737;1294;61321;-82
2023/11/05 02:29:06;;;;;;;;;;;;;;;20.40;45.87;99715.25;102753;1294;61623;-83
2023/11/05 02:31:32;;;;;;;;;;;;;;;20.40;45.74;99719.58;102736;1295;60666;-81
2023/11/05 02:34:00;;;;;;;;;;;;;;;20.40;45.65;99719.59;102720;1303;60509;-82
2023/11/05 02:36:26;;;;;;;;;;;;;;;20.39;45.78;99724.44;103019;1293;60788;-82
2023/11/05 02:39:15;;;;;;;;;;;;;;;20.39;45.78;99722.69;102722;1293;60535;-83
2023/11/05 02:41:41;;;;;;;;;;;;;;;20.39;45.73;99726.41;102530;1299;60588;-82
2023/11/05 02:44:06;;;;;;;;;;;;;;;20.39;45.68;99727.48;102539;1294;61817;-82
2023/11/05 02:46:31;;;;;;;;;;;;;;;20.39;45.76;99733.21;102324;1310;60607;-82
2023/11/05 02:48:57;;;;;;;;;;;;;;;20.39;45.84;99739.16;102315;1296;62189;-84
2023/11/05 02:51:22;;;;;;;;;;;;;;;20.39;45.85;99739.11;102309;1300;60619;-83
2023/11/05 02:53:48;;;;;;;;;;;;;;;20.39;45.69;99747.52;102300;1299;60797;-82
2023/11/05 02:56:13;;;;;;;;;;;;;;;20.39;45.66;99753.23;102289;1303;61201;-82
2023/11/05 02:58:39;;;;;;;;;;;;;;;20.38;45.61;99751.15;102499;1296;60695;-82
2023/11/05 03:01:04;;;;;;;;;;;;;;;20.39;45.67;99754.17;102309;1300;60463;-83
2023/11/05 03:03:31;;;;;;;;;;;;;;;20.39;45.43;99756.34;102576;1300;60652;-82
2023/11/05 03:05:56;;;;;;;;;;;;;;;20.39;45.69;99754.38;102311;1302;61716;-83
2023/11/05 03:08:22;;;;;;;;;;;;;;;20.38;45.71;99749.93;102295;1300;60603;-82
2023/11/05 03:10:47;;;;;;;;;;;;;;;20.37;45.58;99748.90;102520;1298;61767;-81
2023/11/05 03:13:13;;;;;;;;;;;;;;;20.37;45.59;99752.29;102500;1298;60596;-83
2023/11/05 03:15:38;;;;;;;;;;;;;;;20.38;45.55;99751.73;102524;1296;60946;-83
2023/11/05 03:18:04;;;;;;;;;;;;;;;20.37;45.59;99756.41;102855;1298;61795;-81
2023/11/05 03:20:32;;;;;;;;;;;;;;;20.38;45.65;99761.40;102975;1289;60569;-82
2023/11/05 03:22:58;;;;;;;;;;;;;;;20.37;45.60;99755.33;102978;1293;74625;-84
2023/11/05 03:25:24;;;;;;;;;;;;;;;20.37;45.53;99753.92;102814;1294;60527;-81
2023/11/05 03:27:51;;;;;;;;;;;;;;;20.37;45.47;99749.27;103030;1303;60501;-83
2023/11/05 03:30:17;;;;;;;;;;;;;;;20.37;45.68;99751.95;103024;1290;61048;-83
2023/11/05 03:32:42;;;;;;;;;;;;;;;20.37;45.40;99752.73;102716;1291;60599;-82
2023/11/05 03:35:10;;;;;;;;;;;;;;;20.37;45.55;99759.52;103032;1294;60601;-83
2023/11/05 03:37:36;;;;;;;;;;;;;;;20.37;45.56;99764.34;103098;1289;60584;-82
2023/11/05 03:40:02;;;;;;;;;;;;;;;20.37;45.47;99763.10;102729;1294;61100;-81
2023/11/05 03:42:28;;;;;;;;;;;;;;;20.36;45.72;99759.73;102686;1294;60594;-83
2023/11/05 03:44:54;;;;;;;;;;;;;;;20.36;45.54;99750.63;102714;1294;61735;-84
2023/11/05 03:47:20;;;;;;;;;;;;;;;20.36;45.45;99748.83;103056;1291;61027;-82
2023/11/05 03:49:45;;;;;;;;;;;;;;;20.36;45.66;99750.09;102780;1295;60645;-83
2023/11/05 03:52:11;;;;;;;;;;;;;;;20.36;45.50;99746.71;103037;1295;60645;-82
2023/11/05 03:54:36;;;;;;;;;;;;;;;20.36;45.55;99746.54;102771;1290;61754;-81
2023/11/05 03:57:02;;;;;;;;;;;;;;;20.35;45.48;99741.76;102742;1291;60606;-83
2023/11/05 03:59:31;;;;;;;;;;;;;;;20.36;45.39;99739.77;102717;1295;60591;-83
2023/11/05 04:01:57;;;;;;;;;;;;;;;20.35;45.40;99752.34;102792;1290;61365;-85
2023/11/05 04:04:27;;;;;;;;;;;;;;;20.35;45.38;99749.48;102693;1293;72451;-83
2023/11/05 04:06:53;;;;;;;;;;;;;;;20.36;45.37;99743.90;102988;1294;73287;-84
2023/11/05 04:09:18;;;;;;;;;;;;;;;20.35;45.44;99741.41;102731;1295;60628;-84
2023/11/05 04:11:44;;;;;;;;;;;;;;;20.35;45.54;99737.33;102836;1293;61264;-82
2023/11/05 04:14:09;;;;;;;;;;;;;;;20.35;45.51;99731.44;102764;1294;60512;-83
2023/11/05 04:16:35;;;;;;;;;;;;;;;20.35;45.48;99735.20;102784;1291;61299;-83
2023/11/05 04:19:01;;;;;;;;;;;;;;;20.34;45.45;99742.96;102761;1291;73744;-81
2023/11/05 04:21:26;;;;;;;;;;;;;;;20.34;45.40;99755.10;102999;1289;60600;-84
2023/11/05 04:23:52;;;;;;;;;;;;;;;20.34;45.33;99755.66;102781;1291;72064;-82
2023/11/05 04:26:18;;;;;;;;;;;;;;;20.34;45.40;99756.36;102651;1289;60691;-84
2023/11/05 04:28:46;;;;;;;;;;;;;;;20.34;45.34;99758.51;103019;1294;61807;-82
2023/11/05 04:31:14;;;;;;;;;;;;;;;20.34;45.35;99762.65;102880;1293;60520;-82
2023/11/05 04:33:40;;;;;;;;;;;;;;;20.33;45.31;99761.94;102970;1290;61091;-82
2023/11/05 04:36:05;;;;;;;;;;;;;;;20.34;45.37;99763.88;102723;1294;61035;-83
2023/11/05 04:38:33;;;;;;;;;;;;;;;20.33;45.30;99768.91;102819;1291;60670;-82
2023/11/05 04:40:59;;;;;;;;;;;;;;;20.33;45.37;99774.10;102992;1289;60605;-82
2023/11/05 04:43:25;;;;;;;;;;;;;;;20.33;45.35;99771.09;103056;1294;61884;-83
2023/11/05 04:45:51;;;;;;;;;;;;;;;20.33;45.24;99772.35;102764;1289;60514;-82
2023/11/05 04:48:41;;;;;;;;;;;;;;;20.33;45.28;99777.53;102825;1291;61699;-83
2023/11/05 04:51:08;;;;;;;;;;;;;;;20.33;45.19;99775.93;102509;1296;60592;-83
2023/11/05 04:53:34;;;;;;;;;;;;;;;20.33;45.30;99772.55;102531;1294;61700;-84
2023/11/05 04:56:00;;;;;;;;;;;;;;;20.33;45.38;99771.84;102328;1294;60596;-83
2023/11/05 04:58:25;;;;;;;;;;;;;;;20.32;45.27;99764.70;102514;1300;60878;-82
2023/11/05 05:01:17;;;;;;;;;;;;;;;20.32;45.07;99761.86;102497;1298;60636;-82
2023/11/05 05:03:43;;;;;;;;;;;;;;;20.32;45.41;99765.98;101979;1303;61071;-82
2023/11/05 05:06:08;;;;;;;;;;;;;;;20.32;45.40;99786.34;101731;1303;60628;-83
2023/11/05 05:08:34;;;;;;;;;;;;;;;20.32;45.23;99792.77;101769;1308;61811;-82
2023/11/05 05:11:00;;;;;;;;;;;;;;;20.32;45.37;99794.41;101921;1308;60601;-83
2023/11/05 05:13:25;;;;;;;;;;;;;;;20.32;45.26;99799.05;101912;1309;61830;-83
2023/11/05 05:15:52;;;;;;;;;;;;;;;20.32;45.49;99803.70;101803;1306;60909;-81
2023/11/05 05:18:17;;;;;;;;;;;;;;;20.32;45.19;99803.70;101935;1305;72777;-83
2023/11/05 05:20:43;;;;;;;;;;;;;;;20.32;45.20;99793.67;101977;1302;61000;-83
2023/11/05 05:23:08;;;;;;;;;;;;;;;20.32;45.28;99788.34;101784;1308;61794;-82
2023/11/05 05:25:34;;;;;;;;;;;;;;;20.32;45.22;99783.35;101946;1303;60622;-83
2023/11/05 05:28:01;;;;;;;;;;;;;;;20.32;45.31;99786.90;102000;1297;60663;-83
2023/11/05 05:30:27;;;;;;;;;;;;;;;20.32;45.28;99783.73;102261;1302;60954;-84
2023/11/05 05:32:53;;;;;;;;;;;;;;;20.31;45.17;99787.86;102294;1297;60593;-82
2023/11/05 05:35:19;;;;;;;;;;;;;;;20.32;45.24;99786.58;102312;1300;61760;-84
2023/11/05 05:37:47;;;;;;;;;;;;;;;20.32;45.22;99778.55;102238;1302;60669;-82
2023/11/05 05:40:13;;;;;;;;;;;;;;;20.32;45.17;99769.44;102305;1291;60778;-85
2023/11/05 05:42:40;;;;;;;;;;;;;;;20.31;45.24;99769.27;102748;1293;60609;-82
2023/11/05 05:45:06;;;;;;;;;;;;;;;20.32;45.18;99775.83;102789;1291;60960;-82
2023/11/05 05:47:32;;;;;;;;;;;;;;;20.31;45.17;99783.94;102982;1291;61300;-82
2023/11/05 05:49:57;;;;;;;;;;;;;;;20.31;45.18;99787.66;102737;1291;60967;-83
2023/11/05 05:52:23;;;;;;;;;;;;;;;20.32;45.11;99790.30;103016;1303;60623;-82
2023/11/05 05:54:49;;;;;;;;;;;;;;;20.32;45.15;99799.96;102759;1291;74588;-83
2023/11/05 05:57:15;;;;;;;;;;;;;;;20.31;45.26;99799.33;102744;1294;61206;-82
2023/11/05 05:59:41;;;;;;;;;;;;;;;20.32;45.29;99794.09;102978;1289;60489;-82
2023/11/05 06:02:07;;;;;;;;;;;;;;;20.32;45.13;99798.18;102640;1290;61174;-84
2023/11/05 06:05:00;;;;;;;;;;;;;;;20.32;45.13;99799.41;102726;1290;61665;-82
2023/11/05 06:07:26;;;;;;;;;;;;;;;20.32;45.21;99801.22;102550;1298;61017;-83
2023/11/05 06:09:52;;;;;;;;;;;;;;;20.32;45.22;99799.79;102313;1296;61673;-81
2023/11/05 06:12:17;;;;;;;;;;;;;;;20.31;45.21;99801.96;102339;1299;60696;-82
2023/11/05 06:14:43;;;;;;;;;;;;;;;20.32;45.09;99803.55;102531;1294;60695;-80
2023/11/05 06:17:10;;;;;;;;;;;;;;;20.32;45.07;99791.23;102656;1294;60609;-82
2023/11/05 06:19:35;;;;;;;;;;;;;;;20.32;45.11;99786.23;102497;1294;60589;-85
2023/11/05 06:22:08;;;;;;;;;;;;;;;20.32;45.11;99788.90;102322;1294;60839;-81
2023/11/05 06:24:38;;;;;;;;;;;;;;;20.32;45.11;99789.44;102509;1295;74459;-83
2023/11/05 06:27:03;;;;;;;;;;;;;;;20.32;45.06;99798.33;102323;1300;60992;-82
2023/11/05 06:29:29;;;;;;;;;;;;;;;20.32;45.00;99800.64;102498;1294;60684;-84
2023/11/05 06:31:55;;;;;;;;;;;;;;;20.32;45.01;99804.56;102488;1299;61190;-82
2023/11/05 06:34:21;;;;;;;;;;;;;;;20.32;44.91;99805.84;102342;1294;60650;-82
2023/11/05 06:36:59;;;;;;;;;;;;;;;20.32;45.11;99801.20;102329;1299;60506;-84
2023/11/05 06:39:27;;;;;;;;;;;;;;;20.32;45.14;99795.86;102392;1300;61108;-82
2023/11/05 06:41:53;;;;;;;;;;;;;;;20.32;45.14;99791.55;102283;1294;72448;-83
2023/11/05 06:44:19;;;;;;;;;;;;;;;20.32;45.09;99788.17;102369;1291;60679;-82
2023/11/05 06:46:45;;;;;;;;;;;;;;;20.32;45.05;99789.93;102937;1293;60567;-82
2023/11/05 06:49:11;;;;;;;;;;;;;;;20.32;45.02;99793.14;102712;1292;60558;-82
2023/11/05 06:52:02;;;;;;;;;;;;;;;20.32;44.99;99784.75;102736;1291;60610;-83
2023/11/05 06:54:28;;;;;;;;;;;;;;;20.32;44.95;99782.98;102432;1295;75466;-82
2023/11/05 06:56:55;;;;;;;;;;;;;;;20.32;45.02;99784.77;102579;1294;61801;-82
2023/11/05 06:59:23;;;;;;;;;;;;;;;20.32;45.16;99785.30;102310;1295;61473;-82
2023/11/05 07:01:49;;;;;;;;;;;;;;;20.32;45.02;99787.43;102513;1296;72561;-83
2023/11/05 07:04:15;;;;;;;;;;;;;;;20.32;45.11;99789.95;102314;1294;61586;-83
2023/11/05 07:06:40;;;;;;;;;;;;;;;20.32;45.14;99791.55;102539;1294;61484;-82
2023/11/05 07:09:09;;;;;;;;;;;;;;;20.32;45.15;99788.88;102517;1294;61395;-82
2023/11/05 07:11:34;;;;;;;;;;;;;;;20.32;44.96;99777.94;102533;1300;61487;-83
2023/11/05 07:14:00;;;;;;;;;;;;;;;20.32;44.94;99776.16;102473;1294;61849;-83
2023/11/05 07:16:29;;;;;;;;;;;;;;;20.32;45.05;99765.97;102312;1298;61381;-82
2023/11/05 07:18:56;;;;;;;;;;;;;;;20.32;45.01;99760.79;102334;1295;61524;-82
2023/11/05 07:21:22;;;;;;;;;;;;;;;20.32;44.98;99755.62;102304;1295;73383;-82
2023/11/05 07:23:48;;;;;;;;;;;;;;;20.32;45.02;99755.42;102372;1294;62155;-83
2023/11/05 07:26:13;;;;;;;;;;;;;;;20.33;44.80;99751.84;102583;1296;61408;-82
2023/11/05 07:28:39;;;;;;;;;;;;;;;20.32;45.01;99751.33;102297;1294;61830;-82
2023/11/05 07:31:04;;;;;;;;;;;;;;;20.32;44.94;99750.63;102570;1291;61501;-82
2023/11/05 07:33:30;;;;;;;;;;;;;;;20.32;44.84;99745.07;102655;1290;72544;-82
2023/11/05 07:35:59;;;;;;;;;;;;;;;20.32;44.87;99745.23;102741;1294;75416;-83
2023/11/05 07:38:28;;;;;;;;;;;;;;;20.33;44.82;99743.79;102818;1290;61371;-83
2023/11/05 07:40:54;;;;;;;;;;;;;;;20.32;44.88;99737.78;102710;1291;61306;-83
2023/11/05 07:43:19;;;;;;;;;;;;;;;20.33;44.78;99747.89;102731;1292;62401;-81
2023/11/05 07:45:45;;;;;;;;;;;;;;;20.33;44.92;99753.98;102762;1293;61441;-82
2023/11/05 07:48:11;;;;;;;;;;;;;;;20.33;44.94;99760.22;102995;1293;61383;-82
2023/11/05 07:50:36;;;;;;;;;;;;;;;20.33;44.82;99766.83;102768;1291;62541;-84
2023/11/05 07:53:03;;;;;;;;;;;;;;;20.33;44.86;99772.35;102776;1290;62408;-82
2023/11/05 07:55:29;;;;;;;;;;;;;;;20.33;44.79;99772.36;102763;1290;72642;-83
2023/11/05 07:57:54;;;;;;;;;;;;;;;20.33;44.84;99766.97;102745;1289;62326;-82
2023/11/05 08:00:20;;;;;;;;;;;;;;;20.33;44.76;99762.30;102986;1291;61289;-81
2023/11/05 08:02:47;;;;;;;;;;;;;;;20.33;44.79;99767.33;102772;1290;61324;-82
2023/11/05 08:05:13;;;;;;;;;;;;;;;20.33;44.98;99772.15;102904;1291;61401;-82
2023/11/05 08:07:39;;;;;;;;;;;;;;;20.34;44.75;99765.67;102854;1293;61377;-82
2023/11/05 08:10:06;;;;;;;;;;;;;;;20.34;44.80;99761.72;102963;1289;61411;-83
2023/11/05 08:12:34;;;;;;;;;;;;;;;20.34;44.87;99757.60;102807;1293;61837;-81
2023/11/05 08:15:01;;;;;;;;;;;;;;;20.34;44.72;99752.98;102736;1291;61357;-81
2023/11/05 08:17:27;;;;;;;;;;;;;;;20.34;44.76;99758.16;102704;1291;62399;-85
2023/11/05 08:19:52;;;;;;;;;;;;;;;20.34;45.05;99762.96;102968;1289;61387;-84
2023/11/05 08:22:18;;;;;;;;;;;;;;;20.34;44.86;99761.02;102768;1291;61899;-82
2023/11/05 08:24:44;;;;;;;;;;;;;;;20.35;44.88;99753.61;102746;1291;61924;-83
2023/11/05 08:27:11;;;;;;;;;;;;;;;20.34;44.87;99742.58;102757;1291;61393;-84
2023/11/05 08:29:41;;;;;;;;;;;;;;;20.35;44.92;99733.96;102979;1293;62068;-83
2023/11/05 08:32:09;;;;;;;;;;;;;;;20.35;44.84;99731.66;102782;1289;61730;-84
2023/11/05 08:34:35;;;;;;;;;;;;;;;20.35;44.90;99729.66;102728;1290;72497;-83
2023/11/05 08:37:00;;;;;;;;;;;;;;;20.35;44.76;99729.79;102943;1291;62666;-83
2023/11/05 08:39:27;;;;;;;;;;;;;;;20.35;44.87;99723.73;102976;1290;62424;-83
2023/11/05 08:41:54;;;;;;;;;;;;;;;20.36;44.79;99713.35;103168;1291;62036;-82
2023/11/05 08:44:20;;;;;;;;;;;;;;;20.36;44.81;99709.37;102724;1289;62418;-86
2023/11/05 08:46:46;;;;;;;;;;;;;;;20.36;44.83;99704.35;102947;1291;61367;-84
2023/11/05 08:49:11;;;;;;;;;;;;;;;20.36;44.90;99704.52;103028;1290;61461;-82
2023/11/05 08:51:37;;;;;;;;;;;;;;;20.37;44.86;99700.55;102717;1291;61379;-82
2023/11/05 08:54:02;;;;;;;;;;;;;;;20.37;45.04;99696.23;102775;1291;62386;-82
2023/11/05 08:56:29;;;;;;;;;;;;;;;20.38;44.86;99689.35;102943;1293;73454;-84
2023/11/05 08:58:55;;;;;;;;;;;;;;;20.38;44.86;99681.84;102982;1292;61374;-82
2023/11/05 09:01:21;;;;;;;;;;;;;;;20.38;44.94;99673.45;102791;1289;61328;-82
2023/11/05 09:03:46;;;;;;;;;;;;;;;20.39;44.88;99663.21;102761;1289;62058;-86
2023/11/05 09:06:12;;;;;;;;;;;;;;;20.39;44.86;99658.17;102933;1291;61414;-82
2023/11/05 09:08:40;;;;;;;;;;;;;;;20.39;44.91;99650.81;102796;1293;61393;-82
2023/11/05 09:11:07;;;;;;;;;;;;;;;20.40;44.84;99640.61;102706;1293;74468;-82
2023/11/05 09:13:34;;;;;;;;;;;;;;;20.40;44.95;99642.72;102757;1290;61393;-83
2023/11/05 09:16:01;;;;;;;;;;;;;;;20.41;44.87;99643.92;102866;1290;61837;-84
2023/11/05 09:18:28;;;;;;;;;;;;;;;20.41;44.79;99642.30;102995;1291;72492;-83
2023/11/05 09:20:58;;;;;;;;;;;;;;;20.41;44.94;99642.42;102766;1289;73561;-82
2023/11/05 09:23:24;;;;;;;;;;;;;;;20.42;44.92;99639.33;102954;1289;61319;-83
2023/11/05 09:25:50;;;;;;;;;;;;;;;20.42;44.82;99628.23;103010;1291;61460;-82
2023/11/05 09:28:16;;;;;;;;;;;;;;;20.42;44.75;99619.26;102769;1291;61384;-82
2023/11/05 09:30:42;;;;;;;;;;;;;;;20.43;44.81;99619.21;102936;1293;62421;-83
2023/11/05 09:33:11;;;;;;;;;;;;;;;20.44;44.74;99621.98;102783;1290;61350;-86
2023/11/05 09:35:37;;;;;;;;;;;;;;;20.45;44.71;99618.73;102765;1291;61322;-84
2023/11/05 09:38:03;;;;;;;;;;;;;;;20.45;44.83;99618.00;102668;1294;61417;-82
2023/11/05 09:40:29;;;;;;;;;;;;;;;20.46;44.73;99611.31;102962;1293;61411;-82
2023/11/05 09:43:05;;;;;;;;;;;;;;;20.46;44.79;99611.27;102700;1291;61392;-82
2023/11/05 09:45:33;;;;;;;;;;;;;;;20.47;44.83;99599.41;102753;1293;61365;-82
2023/11/05 09:48:11;;;;;;;;;;;;;;;20.47;44.76;99594.92;102822;1290;73483;-83
2023/11/05 09:50:37;;;;;;;;;;;;;;;20.48;44.67;99583.65;102978;1293;75601;-83
2023/11/05 09:53:14;;;;;;;;;;;;;;;20.48;44.73;99568.58;102805;1289;61411;-82
2023/11/05 09:55:39;;;;;;;;;;;;;;;20.48;44.69;99552.66;102734;1291;63075;-82
2023/11/05 09:58:05;;;;;;;;;;;;;;;20.49;44.67;99545.65;102791;1291;61404;-81
2023/11/05 10:00:31;;;;;;;;;;;;;;;20.49;44.72;99538.63;102748;1293;61370;-82
2023/11/05 10:02:57;;;;;;;;;;;;;;;20.49;44.73;99541.48;102762;1291;61872;-84
2023/11/05 10:05:24;;;;;;;;;;;;;;;20.49;44.70;99536.30;102962;1293;61401;-82
2023/11/05 10:07:50;;;;;;;;;;;;;;;20.50;44.68;99528.39;102954;1289;62947;-82
2023/11/05 10:10:17;;;;;;;;;;;;;;;20.50;44.67;99529.11;102708;1291;62181;-83
2023/11/05 10:12:42;;;;;;;;;;;;;;;20.49;44.63;99524.52;102606;1295;61485;-81
2023/11/05 10:15:08;;;;;;;;;;;;;;;20.50;44.74;99525.91;102753;1290;62825;-85
2023/11/05 10:17:34;;;;;;;;;;;;;;;20.50;44.59;99527.85;102717;1291;61417;-83
2023/11/05 10:20:00;;;;;;;;;;;;;;;20.49;44.69;99521.83;102625;1291;70665;-84
2023/11/05 10:22:26;;;;;;;;;;;;;;;20.49;44.70;99517.36;102691;1291;61443;-83
2023/11/05 10:24:51;;;;;;;;;;;;;;;20.50;44.63;99509.47;102719;1291;61427;-82
2023/11/05 10:27:35;;;;;;;;;;;;;;;20.49;44.60;99499.16;102774;1290;61424;-82
2023/11/05 10:30:03;;;;;;;;;;;;;;;20.49;44.64;99497.39;102708;1296;73430;-82
2023/11/05 10:32:29;;;;;;;;;;;;;;;20.49;44.64;99492.05;102702;1291;74406;-82
2023/11/05 10:34:56;;;;;;;;;;;;;;;20.48;44.77;99485.28;102724;1292;61584;-83
2023/11/05 10:37:21;;;;;;;;;;;;;;;20.48;44.76;99481.52;102658;1294;61459;-82
2023/11/05 10:39:47;;;;;;;;;;;;;;;20.48;44.64;99481.02;102637;1291;61971;-83
2023/11/05 10:42:14;;;;;;;;;;;;;;;20.48;44.75;99481.07;102637;1291;62026;-83
2023/11/05 10:44:43;;;;;;;;;;;;;;;20.48;44.64;99479.10;102675;1291;61462;-82
2023/11/05 10:47:09;;;;;;;;;;;;;;;20.47;44.73;99473.64;102704;1291;61340;-81
2023/11/05 10:49:35;;;;;;;;;;;;;;;20.46;44.75;99472.94;102868;1293;72466;-82
2023/11/05 10:52:01;;;;;;;;;;;;;;;20.46;44.60;99473.52;102722;1289;61436;-82
2023/11/05 10:54:27;;;;;;;;;;;;;;;20.46;44.64;99470.35;102824;1291;61938;-85
2023/11/05 10:56:52;;;;;;;;;;;;;;;20.45;44.69;99473.05;102741;1291;61379;-81
2023/11/05 10:59:34;;;;;;;;;;;;;;;20.45;44.59;99461.27;102991;1291;61411;-84
2023/11/05 11:02:00;;;;;;;;;;;;;;;20.45;44.60;99448.61;102688;1291;73725;-83
2023/11/05 11:04:26;;;;;;;;;;;;;;;20.44;44.60;99444.38;102781;1291;61361;-83
2023/11/05 11:06:53;;;;;;;;;;;;;;;20.44;44.53;99436.52;102975;1291;61571;-82
2023/11/05 11:09:22;;;;;;;;;;;;;;;20.44;44.68;99436.00;103020;1289;62657;-84
2023/11/05 11:11:48;;;;;;;;;;;;;;;20.43;44.50;99430.13;102809;1291;71557;-81
2023/11/05 11:14:14;;;;;;;;;;;;;;;20.43;44.58;99422.45;103003;1289;61381;-83
2023/11/05 11:16:40;;;;;;;;;;;;;;;20.43;44.59;99418.02;102747;1293;61401;-81
2023/11/05 11:19:12;;;;;;;;;;;;;;;20.43;44.59;99416.73;102828;1289;62395;-82
2023/11/05 11:21:44;;;;;;;;;;;;;;;20.43;44.57;99413.31;102861;1290;73169;-83
2023/11/05 11:24:39;;;;;;;;;;;;;;;20.43;44.59;99404.77;103000;1290;75723;-83
2023/11/05 11:27:05;;;;;;;;;;;;;;;20.44;44.66;99411.51;102930;1290;61307;-83
2023/11/05 11:29:32;;;;;;;;;;;;;;;20.43;44.58;99413.31;102772;1290;61973;-82
2023/11/05 11:31:57;;;;;;;;;;;;;;;20.44;44.52;99411.13;102811;1293;61556;-82
2023/11/05 11:34:23;;;;;;;;;;;;;;;20.45;44.61;99406.63;102887;1289;62084;-82
2023/11/05 11:36:56;;;;;;;;;;;;;;;20.45;44.58;99405.86;103292;1289;61380;-81
2023/11/05 11:39:22;;;;;;;;;;;;;;;20.45;44.51;99407.28;103777;1289;62446;-81
2023/11/05 11:41:48;;;;;;;;;;;;;;;20.46;44.51;99398.48;103805;1289;61402;-81
2023/11/05 11:44:13;;;;;;;;;;;;;;;20.47;44.72;99384.11;103660;1291;61325;-81
2023/11/05 11:46:39;;;;;;;;;;;;;;;20.47;44.68;99379.24;103691;1290;61478;-81
2023/11/05 11:49:11;;;;;;;;;;;;;;;20.48;44.70;99377.19;103726;1289;61319;-81
2023/11/05 11:51:37;;;;;;;;;;;;;;;20.49;44.74;99384.80;103421;1290;73403;-82
2023/11/05 11:54:03;;;;;;;;;;;;;;;20.50;44.65;99384.34;103323;1291;62654;-82
2023/11/05 11:56:29;;;;;;;;;;;;;;;20.50;44.73;99381.80;103146;1291;61414;-84
2023/11/05 11:58:57;;;;;;;;;;;;;;;20.51;44.50;99383.50;103101;1289;61544;-83
2023/11/05 12:01:22;;;;;;;;;;;;;;;20.52;44.51;99378.27;102922;1291;61471;-81
2023/11/05 12:03:48;;;;;;;;;;;;;;;20.52;44.59;99375.58;102852;1291;61405;-83
2023/11/05 12:06:13;;;;;;;;;;;;;;;20.53;44.54;99376.92;102966;1291;61347;-82
2023/11/05 12:08:42;;;;;;;;;;;;;;;20.53;44.69;99380.84;102845;1290;62434;-82
2023/11/05 12:11:09;;;;;;;;;;;;;;;20.54;44.70;99372.91;102730;1291;62100;-83
2023/11/05 12:13:35;;;;;;;;;;;;;;;20.54;44.55;99373.37;102749;1293;61273;-82
2023/11/05 12:16:03;;;;;;;;;;;;;;;20.56;44.54;99366.99;102761;1290;62634;-82
2023/11/05 12:18:31;;;;;;;;;;;;;;;20.56;44.50;99362.28;102966;1291;61271;-84
2023/11/05 12:21:00;;;;;;;;;;;;;;;20.57;44.62;99361.48;103137;1291;61330;-83
2023/11/05 12:23:26;;;;;;;;;;;;;;;20.58;44.54;99350.14;103011;1290;72347;-83
2023/11/05 12:26:01;;;;;;;;;;;;;;;20.59;44.60;99341.48;102798;1291;61437;-83
2023/11/05 12:28:27;;;;;;;;;;;;;;;20.60;44.52;99336.94;102986;1292;61318;-82
2023/11/05 12:30:58;;;;;;;;;;;;;;;20.61;44.44;99339.16;103017;1291;61408;-83
2023/11/05 12:33:24;;;;;;;;;;;;;;;20.62;44.51;99346.21;102875;1291;72334;-82
2023/11/05 12:35:50;;;;;;;;;;;;;;;20.63;44.43;99347.73;102951;1289;74469;-82